createdAt,value
2022-08-14T00:01:09.997Z,10.07
2022-08-14T00:03:38.557Z,10.57
2022-08-14T00:06:14.079Z,10.73
2022-08-14T00:08:52.576Z,10.63
2022-08-14T00:11:19.740Z,9.43
2022-08-14T00:13:52.451Z,9.87
2022-08-14T00:16:41.107Z,10.03
2022-08-14T00:19:21.176Z,9.80
2022-08-14T00:21:50.795Z,10.70
2022-08-14T00:24:28.636Z,9.80
2022-08-14T00:27:02.165Z,9.80
2022-08-14T00:29:39.857Z,9.07
2022-08-14T00:32:50.099Z,9.30
2022-08-14T00:34:53.693Z,9.67
2022-08-14T00:37:20.965Z,9.53
2022-08-14T00:39:47.516Z,8.57
2022-08-14T00:42:21.355Z,7.90
2022-08-14T00:45:09.930Z,8.13
2022-08-14T00:47:43.232Z,8.57
2022-08-14T00:50:16.707Z,7.53
2022-08-14T00:52:50.957Z,7.60
2022-08-14T00:55:19.940Z,7.40
2022-08-14T00:58:07.543Z,7.80
2022-08-14T01:00:37.354Z,7.50
2022-08-14T01:03:09.995Z,7.30
2022-08-14T01:05:50.953Z,7.23
2022-08-14T01:08:52.301Z,6.87
2022-08-14T01:11:07.868Z,6.87
2022-08-14T01:13:42.610Z,6.87
2022-08-14T01:16:15.112Z,7.20
2022-08-14T01:19:01.373Z,6.93
2022-08-14T01:21:34.881Z,6.67
2022-08-14T01:24:24.734Z,7.00
2022-08-14T01:27:00.131Z,6.57
2022-08-14T01:29:59.094Z,6.87
2022-08-14T01:32:22.888Z,6.83
2022-08-14T01:35:17.301Z,7.00
2022-08-14T01:37:44.510Z,7.13
2022-08-14T01:40:15.528Z,6.87
2022-08-14T01:42:46.881Z,6.77
2022-08-14T01:45:17.921Z,7.53
2022-08-14T01:47:52.582Z,6.30
2022-08-14T01:50:30.658Z,6.53
2022-08-14T01:53:01.238Z,6.50
2022-08-14T01:55:31.907Z,6.07
2022-08-14T01:58:18.524Z,6.83
2022-08-14T02:00:47.851Z,6.57
2022-08-14T02:03:16.114Z,6.27
2022-08-14T02:05:43.555Z,6.30
2022-08-14T02:08:10.662Z,5.90
2022-08-14T02:10:46.603Z,6.73
2022-08-14T02:13:15.984Z,6.60
2022-08-14T02:15:43.694Z,6.33
2022-08-14T02:18:10.559Z,6.27
2022-08-14T02:20:39.991Z,5.70
2022-08-14T02:23:08.186Z,6.40
2022-08-14T02:25:35.506Z,5.97
2022-08-14T02:28:25.075Z,6.17
2022-08-14T02:30:48.674Z,6.43
2022-08-14T02:33:19.573Z,6.20
2022-08-14T02:35:53.359Z,6.50
2022-08-14T02:38:30.005Z,5.83
2022-08-14T02:41:01.064Z,6.90
2022-08-14T02:43:36.584Z,6.33
2022-08-14T02:46:04.185Z,6.23
2022-08-14T02:49:04.970Z,6.53
2022-08-14T02:51:23.525Z,6.40
2022-08-14T02:53:51.857Z,6.63
2022-08-14T02:56:30.224Z,6.30
2022-08-14T02:59:08.480Z,6.77
2022-08-14T03:01:43.468Z,7.10
2022-08-14T03:04:20.176Z,6.77
2022-08-14T03:06:58.043Z,6.93
2022-08-14T03:10:26.437Z,7.07
2022-08-14T03:12:31.500Z,6.60
2022-08-14T03:15:03.207Z,6.87
2022-08-14T03:17:32.109Z,6.90
2022-08-14T03:20:11.105Z,7.03
2022-08-14T03:22:41.846Z,7.20
2022-08-14T03:25:10.629Z,6.10
2022-08-14T03:27:48.556Z,6.77
2022-08-14T03:30:38.906Z,6.83
2022-08-14T03:33:08.404Z,6.20
2022-08-14T03:35:39.850Z,6.67
2022-08-14T03:39:11.640Z,6.17
2022-08-14T03:40:56.774Z,7.13
2022-08-14T03:43:25.445Z,6.40
2022-08-14T03:45:55.435Z,6.77
2022-08-14T03:48:30.145Z,6.40
2022-08-14T03:50:58.049Z,6.33
2022-08-14T03:53:26.283Z,6.63
2022-08-14T03:55:56.108Z,5.90
2022-08-14T03:58:36.731Z,6.10
2022-08-14T04:01:06.466Z,6.10
2022-08-14T04:03:37.385Z,5.90
2022-08-14T04:06:04.995Z,5.63
2022-08-14T04:08:36.982Z,6.33
2022-08-14T04:11:08.011Z,6.30
2022-08-14T04:13:39.586Z,6.33
2022-08-14T04:16:12.647Z,6.00
2022-08-14T04:18:42.527Z,6.07
2022-08-14T04:21:10.492Z,6.17
2022-08-14T04:23:39.788Z,6.00
2022-08-14T04:26:14.232Z,6.53
2022-08-14T04:29:07.590Z,6.53
2022-08-14T04:33:10.489Z,6.67
2022-08-14T04:34:24.065Z,6.00
2022-08-14T04:37:12.807Z,6.10
2022-08-14T04:39:58.839Z,6.17
2022-08-14T04:42:47.272Z,6.20
2022-08-14T04:45:19.743Z,6.73
2022-08-14T04:48:05.557Z,6.20
2022-08-14T04:50:43.862Z,6.37
2022-08-14T04:53:13.880Z,6.50
2022-08-14T04:55:42.895Z,6.57
2022-08-14T04:58:21.951Z,6.77
2022-08-14T05:00:58.097Z,6.80
2022-08-14T05:03:27.629Z,6.43
2022-08-14T05:05:58.117Z,6.73
2022-08-14T05:08:32.155Z,6.87
2022-08-14T05:11:13.470Z,6.97
2022-08-14T05:14:33.065Z,7.13
2022-08-14T05:16:31.639Z,7.27
2022-08-14T05:19:17.602Z,7.47
2022-08-14T05:22:00.580Z,7.47
2022-08-14T05:24:31.668Z,6.67
2022-08-14T05:26:59.341Z,7.67
2022-08-14T05:29:26.387Z,7.57
2022-08-14T05:31:57.319Z,7.80
2022-08-14T05:34:32.052Z,7.47
2022-08-14T05:37:03.224Z,7.43
2022-08-14T05:39:31.136Z,7.20
2022-08-14T05:41:58.401Z,7.83
2022-08-14T05:44:29.589Z,7.43
2022-08-14T05:46:57.370Z,8.13
2022-08-14T05:49:32.681Z,8.27
2022-08-14T05:52:03.895Z,8.57
2022-08-14T05:54:36.539Z,8.10
2022-08-14T05:57:04.965Z,8.43
2022-08-14T05:59:38.657Z,8.77
2022-08-14T06:02:07.795Z,8.20
2022-08-14T06:04:36.906Z,8.83
2022-08-14T06:07:04.328Z,8.70
2022-08-14T06:09:35.524Z,9.43
2022-08-14T06:12:10.601Z,8.90
2022-08-14T06:14:38.889Z,8.80
2022-08-14T06:17:05.982Z,9.23
2022-08-14T06:19:33.096Z,10.00
2022-08-14T06:21:59.941Z,8.87
2022-08-14T06:24:27.604Z,9.43
2022-08-14T06:27:04.517Z,9.80
2022-08-14T06:29:34.959Z,9.33
2022-08-14T06:32:36.547Z,10.10
2022-08-14T06:35:10.769Z,10.20
2022-08-14T06:37:46.895Z,10.13
2022-08-14T06:40:27.183Z,9.87
2022-08-14T06:43:00.549Z,10.37
2022-08-14T06:45:31.387Z,10.53
2022-08-14T06:47:58.792Z,10.87
2022-08-14T06:50:28.713Z,9.97
2022-08-14T06:52:58.535Z,10.13
2022-08-14T06:55:28.106Z,10.47
2022-08-14T06:57:56.519Z,8.83
2022-08-14T07:00:30.972Z,9.60
2022-08-14T07:03:17.170Z,10.17
2022-08-14T07:05:55.650Z,10.97
2022-08-14T07:08:31.095Z,10.47
2022-08-14T07:11:04.232Z,10.23
2022-08-14T07:13:31.183Z,10.63
2022-08-14T07:15:58.929Z,11.10
2022-08-14T07:18:29.208Z,10.10
2022-08-14T07:20:57.462Z,9.67
2022-08-14T07:23:25.811Z,9.70
2022-08-14T07:25:55.355Z,9.83
2022-08-14T07:28:43.361Z,9.70
2022-08-14T07:31:12.283Z,10.47
2022-08-14T07:33:46.666Z,9.73
2022-08-14T07:36:27.274Z,9.27
2022-08-14T07:39:00.942Z,9.57
2022-08-14T07:41:31.282Z,8.98
2022-08-14T07:44:22.425Z,9.50
2022-08-14T07:46:47.936Z,9.30
2022-08-14T07:49:17.921Z,9.07
2022-08-14T07:51:45.323Z,9.07
2022-08-14T07:54:12.388Z,9.33
2022-08-14T07:56:47.510Z,9.40
2022-08-14T07:59:16.940Z,9.10
2022-08-14T08:01:51.171Z,9.85
2022-08-14T08:04:25.196Z,9.38
2022-08-14T08:06:53.758Z,9.50
2022-08-14T08:09:32.097Z,9.63
2022-08-14T08:12:05.062Z,10.30
2022-08-14T08:14:55.538Z,10.13
2022-08-14T08:17:25.616Z,10.13
2022-08-14T08:19:52.392Z,10.63
2022-08-14T08:22:21.280Z,10.10
2022-08-14T08:24:50.817Z,10.30
2022-08-14T08:27:19.930Z,10.75
2022-08-14T08:29:50.786Z,9.87
2022-08-14T08:32:18.507Z,10.57
2022-08-14T08:34:46.364Z,10.17
2022-08-14T08:37:14.751Z,11.43
2022-08-14T08:40:03.305Z,10.97
2022-08-14T08:42:38.250Z,11.10
2022-08-14T08:45:06.243Z,10.90
2022-08-14T08:47:40.409Z,10.53
2022-08-14T08:50:23.237Z,10.87
2022-08-14T08:53:02.049Z,11.33
2022-08-14T08:55:31.825Z,10.77
2022-08-14T08:58:05.441Z,11.30
2022-08-14T09:00:40.986Z,11.37
2022-08-14T09:03:12.307Z,11.67
2022-08-14T09:06:54.022Z,12.47
2022-08-14T09:08:55.728Z,11.93
2022-08-14T09:11:24.578Z,11.77
2022-08-14T09:13:52.645Z,11.30
2022-08-14T09:16:25.867Z,11.13
2022-08-14T09:18:53.932Z,11.47
2022-08-14T09:21:24.047Z,11.57
2022-08-14T09:24:29.325Z,11.47
2022-08-14T09:26:42.395Z,10.87
2022-08-14T09:29:11.471Z,10.60
2022-08-14T09:31:53.462Z,11.27
2022-08-14T09:34:27.961Z,10.90
2022-08-14T09:37:27.377Z,10.73
2022-08-14T09:40:20.939Z,11.30
2022-08-14T09:43:05.414Z,11.10
2022-08-14T09:45:40.280Z,10.80
2022-08-14T09:48:29.837Z,11.00
2022-08-14T09:54:17.921Z,11.43
2022-08-14T09:56:45.855Z,11.17
2022-08-14T09:59:16.167Z,11.97
2022-08-14T10:01:52.769Z,11.03
2022-08-14T10:04:33.745Z,11.47
2022-08-14T10:07:08.422Z,11.83
2022-08-14T10:10:00.023Z,12.10
2022-08-14T10:12:53.163Z,12.00
2022-08-14T10:15:25.951Z,11.57
2022-08-14T10:18:17.326Z,10.70
2022-08-14T10:21:01.038Z,11.83
2022-08-14T10:23:34.954Z,11.75
2022-08-14T10:26:07.240Z,11.73
2022-08-14T10:29:14.196Z,11.88
2022-08-14T10:31:40.187Z,12.77
2022-08-14T10:34:16.263Z,11.33
2022-08-14T10:36:48.094Z,11.15
2022-08-14T10:39:22.067Z,11.67
2022-08-14T10:41:53.786Z,11.63
2022-08-14T10:44:29.664Z,11.93
2022-08-14T10:47:41.474Z,11.68
2022-08-14T10:50:00.123Z,11.63
2022-08-14T10:52:33.891Z,11.87
2022-08-14T10:55:15.467Z,12.00
2022-08-14T10:57:57.495Z,11.67
2022-08-14T11:00:35.572Z,12.07
2022-08-14T11:03:15.741Z,11.27
2022-08-14T11:05:55.727Z,11.80
2022-08-14T11:08:35.445Z,12.23
2022-08-14T11:11:05.621Z,12.00
2022-08-14T11:13:34.932Z,11.83
2022-08-14T11:16:02.477Z,11.33
2022-08-14T11:18:40.197Z,11.83
2022-08-14T11:21:08.428Z,11.37
2022-08-14T11:23:39.882Z,12.13
2022-08-14T11:26:10.805Z,11.70
2022-08-14T11:28:48.144Z,12.60
2022-08-14T11:31:22.107Z,12.25
2022-08-14T11:33:58.192Z,11.73
2022-08-14T11:36:35.444Z,11.83
2022-08-14T11:39:34.495Z,12.27
2022-08-14T11:42:55.463Z,12.57
2022-08-14T11:45:11.148Z,11.15
2022-08-14T11:48:12.816Z,11.23
2022-08-14T11:50:37.630Z,12.07
2022-08-14T11:53:20.207Z,12.27
2022-08-14T11:55:46.955Z,11.32
2022-08-14T11:58:23.812Z,11.93
2022-08-14T12:00:53.881Z,12.15
2022-08-14T12:03:37.356Z,12.40
2022-08-14T12:06:27.851Z,12.40
2022-08-14T12:08:56.874Z,11.60
2022-08-14T12:11:44.105Z,12.32
2022-08-14T12:14:30.798Z,12.47
2022-08-14T12:17:11.751Z,12.50
2022-08-14T12:19:51.555Z,11.80
2022-08-14T12:22:33.953Z,12.02
2022-08-14T12:25:01.789Z,12.23
2022-08-14T12:27:59.226Z,11.87
2022-08-14T12:30:43.052Z,11.45
2022-08-14T12:33:35.331Z,11.68
2022-08-14T12:36:07.968Z,11.25
2022-08-14T12:38:43.712Z,11.43
2022-08-14T12:41:22.155Z,11.80
2022-08-14T12:44:01.905Z,11.77
2022-08-14T12:46:43.711Z,11.90
2022-08-14T12:49:16.419Z,11.60
2022-08-14T12:51:44.300Z,11.18
2022-08-14T12:54:27.052Z,11.23
2022-08-14T12:57:04.237Z,11.97
2022-08-14T12:59:37.279Z,11.45
2022-08-14T13:02:25.991Z,11.55
2022-08-14T13:04:55.951Z,11.87
2022-08-14T13:07:24.267Z,11.48
2022-08-14T13:10:00.165Z,10.95
2022-08-14T13:12:32.555Z,10.82
2022-08-14T13:15:18.211Z,10.93
2022-08-14T13:17:52.113Z,11.23
2022-08-14T13:20:26.564Z,11.23
2022-08-14T13:22:56.236Z,11.25
2022-08-14T13:25:25.926Z,11.90
2022-08-14T13:27:55.203Z,10.82
2022-08-14T13:30:24.966Z,10.77
2022-08-14T13:32:53.786Z,11.20
2022-08-14T13:35:22.682Z,10.95
2022-08-14T13:37:52.313Z,11.07
2022-08-14T13:40:26.529Z,11.03
2022-08-14T13:42:56.651Z,11.30
2022-08-14T13:45:33.629Z,11.98
2022-08-14T13:48:27.692Z,11.20
2022-08-14T13:50:59.276Z,10.85
2022-08-14T13:53:33.324Z,10.80
2022-08-14T13:56:00.514Z,11.87
2022-08-14T13:58:30.260Z,10.73
2022-08-14T14:01:00.837Z,11.10
2022-08-14T14:03:30.251Z,10.77
2022-08-14T14:05:58.920Z,10.77
2022-08-14T14:08:45.675Z,10.53
2022-08-14T14:11:16.059Z,11.30
2022-08-14T14:13:45.683Z,10.50
2022-08-14T14:16:15.535Z,10.37
2022-08-14T14:18:56.359Z,10.83
2022-08-14T14:21:28.744Z,9.95
2022-08-14T14:23:56.394Z,10.15
2022-08-14T14:26:24.717Z,10.73
2022-08-14T14:28:56.482Z,10.70
2022-08-14T14:31:29.579Z,10.23
2022-08-14T14:34:00.966Z,10.27
2022-08-14T14:36:35.565Z,11.20
2022-08-14T14:39:05.590Z,9.95
2022-08-14T14:41:38.554Z,10.17
2022-08-14T14:44:16.483Z,11.50
2022-08-14T14:46:50.782Z,10.35
2022-08-14T14:49:31.935Z,10.90
2022-08-14T14:52:17.172Z,10.25
2022-08-14T14:54:50.369Z,10.90
2022-08-14T14:57:18.587Z,10.25
2022-08-14T14:59:50.016Z,10.48
2022-08-14T15:02:29.234Z,11.00
2022-08-14T15:04:56.349Z,10.25
2022-08-14T15:07:23.205Z,10.98
2022-08-14T15:09:50.003Z,10.98
2022-08-14T15:12:56.571Z,10.68
2022-08-14T15:15:08.505Z,10.80
2022-08-14T15:17:41.668Z,11.77
2022-08-14T15:20:30.145Z,10.90
2022-08-14T15:23:11.856Z,10.80
2022-08-14T15:25:41.032Z,10.98
2022-08-14T15:28:11.671Z,11.45
2022-08-14T15:30:44.232Z,10.43
2022-08-14T15:33:14.258Z,11.20
2022-08-14T15:35:44.957Z,11.68
2022-08-14T15:38:17.538Z,11.03
2022-08-14T15:40:44.633Z,11.00
2022-08-14T15:43:23.239Z,11.20
2022-08-14T15:45:54.769Z,11.30
2022-08-14T15:48:23.320Z,11.15
2022-08-14T15:50:50.951Z,11.45
2022-08-14T15:53:18.325Z,10.97
2022-08-14T15:55:46.588Z,10.80
2022-08-14T15:58:14.714Z,10.43
2022-08-14T16:00:59.985Z,11.33
2022-08-14T16:03:37.178Z,11.33
2022-08-14T16:06:15.718Z,11.67
2022-08-14T16:08:46.433Z,11.33
2022-08-14T16:11:17.097Z,11.40
2022-08-14T16:13:45.211Z,11.17
2022-08-14T16:16:47.587Z,11.67
2022-08-14T16:19:10.045Z,11.30
2022-08-14T16:21:40.316Z,11.25
2022-08-14T16:24:27.076Z,11.20
2022-08-14T16:27:00.664Z,11.90
2022-08-14T16:29:30.166Z,11.33
2022-08-14T16:31:59.052Z,12.53
2022-08-14T16:34:44.118Z,12.40
2022-08-14T16:37:13.253Z,11.87
2022-08-14T16:39:41.899Z,11.90
2022-08-14T16:42:38.360Z,12.67
2022-08-14T16:44:58.224Z,11.73
2022-08-14T16:47:25.326Z,12.30
2022-08-14T16:50:04.311Z,11.37
2022-08-14T16:52:44.216Z,11.67
2022-08-14T16:55:13.895Z,12.47
2022-08-14T16:57:54.316Z,12.47
2022-08-14T17:00:44.274Z,10.90
2022-08-14T17:03:18.186Z,11.17
2022-08-14T17:05:46.849Z,10.53
2022-08-14T17:08:32.995Z,11.23
2022-08-14T17:11:10.139Z,10.50
2022-08-14T17:13:59.591Z,11.27
2022-08-14T17:16:37.401Z,11.90
2022-08-14T17:19:05.849Z,10.77
2022-08-14T17:21:41.770Z,11.33
2022-08-14T17:24:56.449Z,10.93
2022-08-14T17:27:03.871Z,11.63
2022-08-14T17:29:34.943Z,11.53
2022-08-14T17:32:27.986Z,11.20
2022-08-14T17:37:46.199Z,12.37
2022-08-14T17:40:19.530Z,12.30
2022-08-14T17:42:51.829Z,11.77
2022-08-14T17:45:43.686Z,11.07
2022-08-14T17:49:10.877Z,12.53
2022-08-14T17:51:23.238Z,12.90
2022-08-14T17:53:53.363Z,12.33
2022-08-14T17:56:20.954Z,12.87
2022-08-14T17:58:49.349Z,12.47
2022-08-14T18:01:17.439Z,12.27
2022-08-14T18:03:53.603Z,12.70
2022-08-14T18:06:39.552Z,13.07
2022-08-14T18:09:26.087Z,13.03
2022-08-14T18:11:57.925Z,12.20
2022-08-14T18:14:32.620Z,13.13
2022-08-14T18:17:13.676Z,13.27
2022-08-14T18:19:45.085Z,12.67
2022-08-14T18:22:24.058Z,12.97
2022-08-14T18:24:59.398Z,13.43
2022-08-14T18:27:43.872Z,13.27
2022-08-14T18:30:33.282Z,12.83
2022-08-14T18:32:59.699Z,12.87
2022-08-14T18:35:59.080Z,10.83
2022-08-14T18:38:46.107Z,10.33
2022-08-14T18:41:36.224Z,9.80
2022-08-14T18:44:10.634Z,9.17
2022-08-14T18:47:10.024Z,8.33
2022-08-14T18:50:26.406Z,7.83
2022-08-14T18:52:53.346Z,7.43
2022-08-14T18:55:20.958Z,6.90
2022-08-14T18:58:27.548Z,7.57
2022-08-14T19:00:56.245Z,8.33
2022-08-14T19:03:37.125Z,8.37
2022-08-14T19:06:07.005Z,8.40
2022-08-14T19:08:47.036Z,8.33
2022-08-14T19:11:32.414Z,9.03
2022-08-14T19:14:04.714Z,9.20
2022-08-14T19:16:34.865Z,9.00
2022-08-14T19:19:04.361Z,8.17
2022-08-14T19:21:43.553Z,9.40
2022-08-14T19:24:27.494Z,9.30
2022-08-14T19:27:19.463Z,9.20
2022-08-14T19:29:51.068Z,9.30
2022-08-14T19:32:36.491Z,11.23
2022-08-14T19:35:17.004Z,9.20
2022-08-14T19:37:55.202Z,9.00
2022-08-14T19:40:34.560Z,8.43
2022-08-14T19:43:06.525Z,10.20
2022-08-14T19:45:37.048Z,10.53
2022-08-14T19:48:10.529Z,11.67
2022-08-14T19:50:41.318Z,10.37
2022-08-14T19:53:17.304Z,9.87
2022-08-14T19:55:54.929Z,8.87
2022-08-14T19:58:28.004Z,9.47
2022-08-14T20:00:57.281Z,10.03
2022-08-14T20:03:24.871Z,9.53
2022-08-14T20:06:05.331Z,11.13
2022-08-14T20:10:58.500Z,10.53
2022-08-14T20:11:58.591Z,10.43
2022-08-14T20:14:29.639Z,9.70
2022-08-14T20:17:05.527Z,13.67
2022-08-14T20:19:38.044Z,10.93
2022-08-14T20:22:36.225Z,10.87
2022-08-14T20:25:11.644Z,10.67
2022-08-14T20:27:41.055Z,10.63
2022-08-14T20:30:33.567Z,11.30
2022-08-14T20:33:07.687Z,10.67
2022-08-14T20:35:43.665Z,11.00
2022-08-14T20:38:31.189Z,10.77
2022-08-14T20:41:09.486Z,11.87
2022-08-14T20:43:59.417Z,11.53
2022-08-14T20:46:31.858Z,11.83
2022-08-14T20:48:59.621Z,10.73
2022-08-14T20:51:43.385Z,10.87
2022-08-14T20:54:21.563Z,10.13
2022-08-14T20:57:43.644Z,10.10
2022-08-14T21:00:12.041Z,10.60
2022-08-14T21:02:50.012Z,10.87
2022-08-14T21:05:22.515Z,11.40
2022-08-14T21:08:07.877Z,11.63
2022-08-14T21:10:44.106Z,10.27
2022-08-14T21:14:09.074Z,10.60
2022-08-14T21:16:03.058Z,11.20
2022-08-14T21:18:35.172Z,12.10
2022-08-14T21:21:18.076Z,11.20
2022-08-14T21:23:54.962Z,12.23
2022-08-14T21:26:51.201Z,12.33
2022-08-14T21:29:11.387Z,12.10
2022-08-14T21:31:38.965Z,12.83
2022-08-14T21:34:27.528Z,11.83
2022-08-14T21:36:54.632Z,12.73
2022-08-14T21:39:24.347Z,12.33
2022-08-14T21:41:58.421Z,12.57
2022-08-14T21:44:42.600Z,11.60
2022-08-14T21:47:10.143Z,14.40
2022-08-14T21:49:39.096Z,12.13
2022-08-14T21:52:51.904Z,12.77
2022-08-14T21:55:01.922Z,13.67
2022-08-14T21:58:46.371Z,13.97
2022-08-14T22:00:36.695Z,13.33
2022-08-14T22:03:09.829Z,12.57
2022-08-14T22:05:39.096Z,13.67
2022-08-14T22:08:06.692Z,13.63
2022-08-14T22:10:35.014Z,12.80
2022-08-14T22:13:02.106Z,13.83
2022-08-14T22:15:29.916Z,13.90
2022-08-14T22:17:57.759Z,14.13
2022-08-14T22:20:28.768Z,14.40
2022-08-14T22:22:56.912Z,13.90
2022-08-14T22:25:33.330Z,13.93
2022-08-14T22:28:01.610Z,13.83
2022-08-14T22:30:28.145Z,14.13
2022-08-14T22:32:56.825Z,13.87
2022-08-14T22:35:25.568Z,14.33
2022-08-14T22:38:36.549Z,14.40
2022-08-14T22:41:14.885Z,14.33
2022-08-14T22:43:27.568Z,13.40
2022-08-14T22:45:58.272Z,14.10
2022-08-14T22:48:29.696Z,13.07
2022-08-14T22:50:56.336Z,12.93
2022-08-14T22:53:24.072Z,13.60
2022-08-14T22:55:56.686Z,13.87
2022-08-14T22:58:31.440Z,13.07
2022-08-14T23:01:01.041Z,12.80
2022-08-14T23:03:27.693Z,14.17
2022-08-14T23:05:55.531Z,15.67
2022-08-14T23:08:59.739Z,14.80
2022-08-14T23:11:10.335Z,15.33
2022-08-14T23:13:39.171Z,16.17
2022-08-14T23:16:06.887Z,15.07
2022-08-14T23:18:34.561Z,15.80
2022-08-14T23:21:01.577Z,15.20
2022-08-14T23:23:28.049Z,15.30
2022-08-14T23:26:00.265Z,16.63
2022-08-14T23:28:58.104Z,15.87
2022-08-14T23:31:34.346Z,16.43
2022-08-14T23:34:06.752Z,15.80
2022-08-14T23:36:37.853Z,15.57
2022-08-14T23:39:21.061Z,17.53
2022-08-14T23:41:52.698Z,15.97
2022-08-14T23:44:22.129Z,16.60
2022-08-14T23:46:49.535Z,17.27
2022-08-14T23:49:21.259Z,16.90
2022-08-14T23:52:49.444Z,16.23
2022-08-14T23:54:49.379Z,16.40
2022-08-14T23:57:19.339Z,16.80
2022-08-14T23:59:54.696Z,16.73
